createdAt,value
2022-12-16T00:01:07.181Z,0.60
2022-12-16T00:03:35.780Z,0.70
2022-12-16T00:06:05.508Z,0.60
2022-12-16T00:08:34.348Z,0.70
2022-12-16T00:11:02.356Z,0.80
2022-12-16T00:13:31.004Z,0.70
2022-12-16T00:15:59.097Z,0.70
2022-12-16T00:18:27.045Z,0.70
2022-12-16T00:20:55.281Z,0.80
2022-12-16T00:23:24.511Z,1.30
2022-12-16T00:25:52.989Z,2.00
2022-12-16T00:28:23.051Z,1.40
2022-12-16T00:30:51.480Z,1.20
2022-12-16T00:33:20.303Z,1.10
2022-12-16T00:35:48.209Z,0.90
2022-12-16T00:38:16.256Z,0.90
2022-12-16T00:40:45.437Z,0.70
2022-12-16T00:43:13.286Z,0.70
2022-12-16T00:45:41.217Z,0.70
2022-12-16T00:48:09.261Z,0.70
2022-12-16T00:50:37.231Z,0.70
2022-12-16T00:53:05.107Z,0.80
2022-12-16T00:55:33.081Z,0.70
2022-12-16T00:58:02.285Z,0.80
2022-12-16T01:00:30.146Z,0.70
2022-12-16T01:02:58.177Z,0.70
2022-12-16T01:05:27.537Z,0.80
2022-12-16T01:07:55.953Z,1.00
2022-12-16T01:10:24.162Z,0.90
2022-12-16T01:12:52.207Z,0.90
2022-12-16T01:15:21.416Z,0.90
2022-12-16T01:17:49.586Z,1.00
2022-12-16T01:20:17.541Z,0.90
2022-12-16T01:22:45.384Z,0.90
2022-12-16T01:25:13.856Z,0.80
2022-12-16T01:27:41.789Z,0.80
2022-12-16T01:30:11.277Z,0.90
2022-12-16T01:32:40.495Z,0.90
2022-12-16T01:35:29.389Z,1.00
2022-12-16T01:37:57.195Z,1.10
2022-12-16T01:40:25.183Z,1.00
2022-12-16T01:42:53.033Z,1.00
2022-12-16T01:45:32.873Z,0.90
2022-12-16T01:48:04.502Z,1.00
2022-12-16T01:50:32.592Z,0.90
2022-12-16T01:53:01.676Z,0.90
2022-12-16T01:55:31.313Z,0.90
2022-12-16T01:58:00.631Z,0.80
2022-12-16T02:00:28.468Z,0.90
2022-12-16T02:02:57.500Z,1.00
2022-12-16T02:05:26.830Z,0.90
2022-12-16T02:07:57.631Z,0.80
2022-12-16T02:10:28.379Z,0.90
2022-12-16T02:12:57.839Z,1.00
2022-12-16T02:15:29.864Z,0.90
2022-12-16T02:18:02.521Z,1.00
2022-12-16T02:21:10.083Z,1.10
2022-12-16T02:24:06.107Z,1.10
2022-12-16T02:26:59.787Z,1.00
2022-12-16T02:30:01.495Z,1.00
2022-12-16T02:32:32.309Z,1.10
2022-12-16T02:35:03.180Z,1.10
2022-12-16T02:37:34.516Z,1.10
2022-12-16T02:40:02.872Z,1.00
2022-12-16T02:42:32.035Z,1.10
2022-12-16T02:45:02.700Z,1.10
2022-12-16T02:47:32.509Z,0.90
2022-12-16T02:50:00.438Z,0.90
2022-12-16T02:52:29.642Z,0.90
2022-12-16T02:54:58.670Z,0.90
2022-12-16T02:57:53.339Z,0.90
2022-12-16T03:00:22.073Z,1.10
2022-12-16T03:02:55.414Z,1.00
2022-12-16T03:05:25.058Z,1.00
2022-12-16T03:07:53.273Z,0.90
2022-12-16T03:10:22.500Z,0.90
2022-12-16T03:12:50.327Z,0.90
2022-12-16T03:15:20.398Z,0.90
2022-12-16T03:17:48.266Z,0.90
2022-12-16T03:20:19.730Z,0.90
2022-12-16T03:22:47.953Z,1.00
2022-12-16T03:25:16.394Z,1.00
2022-12-16T03:27:47.392Z,1.10
2022-12-16T03:30:17.214Z,1.10
2022-12-16T03:32:47.575Z,1.00
2022-12-16T03:35:20.607Z,1.10
2022-12-16T03:37:49.113Z,1.10
2022-12-16T03:40:17.086Z,1.10
2022-12-16T03:42:44.923Z,1.10
2022-12-16T03:45:15.124Z,1.20
2022-12-16T03:47:42.961Z,1.10
2022-12-16T03:50:11.088Z,1.00
2022-12-16T03:52:40.274Z,1.00
2022-12-16T03:55:08.717Z,0.90
2022-12-16T03:57:36.564Z,0.90
2022-12-16T04:00:04.858Z,1.10
2022-12-16T04:02:32.964Z,1.10
2022-12-16T04:05:00.922Z,1.10
2022-12-16T04:07:28.767Z,1.10
2022-12-16T04:09:58.005Z,1.20
2022-12-16T04:12:43.207Z,1.20
2022-12-16T04:15:34.539Z,1.40
2022-12-16T04:18:20.020Z,1.40
2022-12-16T04:21:07.388Z,1.50
2022-12-16T04:23:55.980Z,1.40
2022-12-16T04:26:25.177Z,1.20
2022-12-16T04:28:53.044Z,1.40
2022-12-16T04:31:20.922Z,1.30
2022-12-16T04:34:06.412Z,1.30
2022-12-16T04:36:51.917Z,1.20
2022-12-16T04:39:37.313Z,1.10
2022-12-16T04:42:23.904Z,1.10
2022-12-16T04:45:09.610Z,1.20
2022-12-16T04:47:57.448Z,1.10
2022-12-16T04:50:43.141Z,1.10
2022-12-16T04:53:28.813Z,1.00
2022-12-16T04:56:14.518Z,1.10
2022-12-16T04:59:01.240Z,1.10
2022-12-16T05:01:46.745Z,1.20
2022-12-16T05:04:32.423Z,1.20
2022-12-16T05:07:17.950Z,1.20
2022-12-16T05:10:03.403Z,1.10
2022-12-16T05:12:48.976Z,1.10
2022-12-16T05:15:35.668Z,1.10
2022-12-16T05:18:27.003Z,1.10
2022-12-16T05:21:12.569Z,1.10
2022-12-16T05:23:58.110Z,1.10
2022-12-16T05:26:43.757Z,1.10
2022-12-16T05:29:29.237Z,1.10
2022-12-16T05:32:15.997Z,1.10
2022-12-16T05:35:01.499Z,1.10
2022-12-16T05:37:47.159Z,1.10
2022-12-16T05:40:32.589Z,1.20
2022-12-16T05:43:18.094Z,1.20
2022-12-16T05:46:03.731Z,1.30
2022-12-16T05:48:58.732Z,1.20
2022-12-16T05:51:44.139Z,1.20
2022-12-16T05:54:29.804Z,1.20
2022-12-16T05:57:15.304Z,1.20
2022-12-16T06:00:00.794Z,1.20
2022-12-16T06:02:46.538Z,1.10
2022-12-16T06:05:33.381Z,1.00
2022-12-16T06:08:18.803Z,1.10
2022-12-16T06:11:04.344Z,1.00
2022-12-16T06:13:49.883Z,1.00
2022-12-16T06:16:35.426Z,1.00
2022-12-16T06:19:20.895Z,0.90
2022-12-16T06:22:07.707Z,0.90
2022-12-16T06:24:53.093Z,0.90
2022-12-16T06:27:38.637Z,0.80
2022-12-16T06:30:25.292Z,0.80
2022-12-16T06:33:10.799Z,0.80
2022-12-16T06:35:56.323Z,0.80
2022-12-16T06:38:43.156Z,0.70
2022-12-16T06:41:28.620Z,0.80
2022-12-16T06:44:14.163Z,0.80
2022-12-16T06:46:55.948Z,0.80
2022-12-16T06:49:41.595Z,0.80
2022-12-16T06:52:26.962Z,0.90
2022-12-16T06:55:13.863Z,0.70
2022-12-16T06:57:59.472Z,0.70
2022-12-16T07:00:44.840Z,0.70
2022-12-16T07:03:26.652Z,0.70
2022-12-16T07:06:12.153Z,0.60
2022-12-16T07:08:57.510Z,0.60
2022-12-16T07:11:44.323Z,0.60
2022-12-16T07:14:29.723Z,0.70
2022-12-16T07:17:17.254Z,0.60
2022-12-16T07:20:03.178Z,0.50
2022-12-16T07:23:05.613Z,0.40
2022-12-16T07:25:57.503Z,0.40
2022-12-16T07:28:44.207Z,0.40
2022-12-16T07:31:29.581Z,0.50
2022-12-16T07:34:15.284Z,0.50
2022-12-16T07:37:00.762Z,0.50
2022-12-16T07:39:51.324Z,0.50
2022-12-16T07:42:40.105Z,0.50
2022-12-16T07:45:27.280Z,0.60
2022-12-16T07:48:12.827Z,0.60
2022-12-16T07:50:58.308Z,0.70
2022-12-16T07:53:43.883Z,0.70
2022-12-16T07:56:29.349Z,0.70
2022-12-16T07:59:14.777Z,0.70
2022-12-16T08:02:01.734Z,0.40
2022-12-16T08:04:46.842Z,0.60
2022-12-16T08:07:32.264Z,0.50
2022-12-16T08:10:17.872Z,0.50
2022-12-16T08:13:03.245Z,0.60
2022-12-16T08:15:48.700Z,0.50
2022-12-16T08:18:40.783Z,0.60
2022-12-16T08:21:31.496Z,0.60
2022-12-16T08:24:17.042Z,0.50
2022-12-16T08:27:02.673Z,0.50
2022-12-16T08:29:48.061Z,0.60
2022-12-16T08:32:33.594Z,0.50
2022-12-16T08:35:20.494Z,1.10
2022-12-16T08:38:10.515Z,1.00
2022-12-16T08:41:05.218Z,0.90
2022-12-16T08:43:50.687Z,0.60
2022-12-16T08:46:36.664Z,0.80
2022-12-16T08:49:21.971Z,0.60
2022-12-16T08:52:08.836Z,0.60
2022-12-16T08:54:54.365Z,0.60
2022-12-16T08:57:40.206Z,1.20
2022-12-16T09:00:26.301Z,2.50
2022-12-16T09:03:13.524Z,2.60
2022-12-16T09:05:58.769Z,1.60
2022-12-16T09:08:45.329Z,1.20
2022-12-16T09:11:30.811Z,1.10
2022-12-16T09:14:16.332Z,1.00
2022-12-16T09:17:01.865Z,0.70
2022-12-16T09:19:47.294Z,0.70
2022-12-16T09:22:32.923Z,0.60
2022-12-16T09:25:19.813Z,0.50
2022-12-16T09:28:07.728Z,0.70
2022-12-16T09:31:02.650Z,0.70
2022-12-16T09:33:48.267Z,0.80
2022-12-16T09:36:34.322Z,0.70
2022-12-16T09:39:19.734Z,0.70
2022-12-16T09:42:13.141Z,0.70
2022-12-16T09:45:05.605Z,0.70
2022-12-16T09:47:53.548Z,0.70
2022-12-16T09:50:40.521Z,0.80
2022-12-16T09:53:31.830Z,0.60
2022-12-16T09:56:17.571Z,0.70
2022-12-16T09:59:09.654Z,0.80
2022-12-16T10:01:56.092Z,0.80
2022-12-16T10:04:41.404Z,0.70
2022-12-16T10:07:27.585Z,0.80
2022-12-16T10:10:17.078Z,0.80
2022-12-16T10:13:03.762Z,0.70
2022-12-16T10:15:55.064Z,0.80
2022-12-16T10:18:48.387Z,0.80
2022-12-16T10:21:35.986Z,0.90
2022-12-16T10:24:24.627Z,0.90
2022-12-16T10:27:12.009Z,0.90
2022-12-16T10:29:58.751Z,1.10
2022-12-16T10:32:48.012Z,1.00
2022-12-16T10:35:39.927Z,1.10
2022-12-16T10:38:30.922Z,1.10
2022-12-16T10:41:16.275Z,0.90
2022-12-16T10:44:03.489Z,0.90
2022-12-16T10:47:02.795Z,0.90
2022-12-16T10:49:53.860Z,0.80
2022-12-16T10:52:40.622Z,0.80
2022-12-16T10:55:31.775Z,1.00
2022-12-16T10:58:21.320Z,1.00
2022-12-16T11:01:07.555Z,1.00
2022-12-16T11:03:54.475Z,1.00
2022-12-16T11:06:43.794Z,1.00
2022-12-16T11:09:40.849Z,0.90
2022-12-16T11:12:33.554Z,0.90
2022-12-16T11:15:38.410Z,1.00
2022-12-16T11:18:25.556Z,0.90
2022-12-16T11:21:23.260Z,1.00
2022-12-16T11:24:26.621Z,0.90
2022-12-16T11:27:12.190Z,0.90
2022-12-16T11:30:08.391Z,0.90
2022-12-16T11:32:54.432Z,1.00
2022-12-16T11:35:43.999Z,0.90
2022-12-16T11:38:34.888Z,0.80
2022-12-16T11:41:21.793Z,0.80
2022-12-16T11:44:08.689Z,0.90
2022-12-16T11:46:54.459Z,0.90
2022-12-16T11:49:44.923Z,0.80
2022-12-16T11:52:38.207Z,0.70
2022-12-16T11:56:03.613Z,0.70
2022-12-16T11:58:43.732Z,0.50
2022-12-16T12:01:31.255Z,0.60
2022-12-16T12:04:16.695Z,0.60
2022-12-16T12:07:21.308Z,0.60
2022-12-16T12:10:10.271Z,0.60
2022-12-16T12:12:57.685Z,0.50
2022-12-16T12:15:47.692Z,0.60
2022-12-16T12:18:36.023Z,0.60
2022-12-16T12:21:24.676Z,0.70
2022-12-16T12:24:13.277Z,0.70
2022-12-16T12:27:06.067Z,1.10
2022-12-16T12:29:56.715Z,1.40
2022-12-16T12:32:47.606Z,0.90
2022-12-16T12:35:41.459Z,0.70
2022-12-16T12:38:30.364Z,0.40
2022-12-16T12:41:17.812Z,1.60
2022-12-16T12:44:06.937Z,0.80
2022-12-16T12:46:54.439Z,0.60
2022-12-16T12:49:46.044Z,0.50
2022-12-16T12:52:37.972Z,0.50
2022-12-16T12:55:26.034Z,0.30
2022-12-16T12:58:11.602Z,0.10
2022-12-16T13:00:59.575Z,0.40
2022-12-16T13:03:49.037Z,0.20
2022-12-16T13:06:35.712Z,0.10
2022-12-16T13:09:21.126Z,0.20
2022-12-16T13:12:44.146Z,0.30
2022-12-16T13:15:29.949Z,0.20
2022-12-16T13:18:43.550Z,0.20
2022-12-16T13:22:03.366Z,0.20
2022-12-16T13:24:58.297Z,0.00
2022-12-16T13:27:43.711Z,0.00
2022-12-16T13:30:42.355Z,0.00
2022-12-16T13:33:43.974Z,-0.10
2022-12-16T13:36:30.264Z,0.00
2022-12-16T13:39:18.043Z,0.10
2022-12-16T13:42:18.174Z,0.10
2022-12-16T13:45:16.535Z,0.00
2022-12-16T13:48:18.381Z,-0.10
2022-12-16T13:51:04.300Z,-0.30
2022-12-16T13:53:50.131Z,-0.20
2022-12-16T13:56:40.603Z,0.00
2022-12-16T13:59:30.055Z,0.00
2022-12-16T14:02:24.421Z,-0.20
2022-12-16T14:05:11.494Z,-0.20
2022-12-16T14:07:57.972Z,-0.20
2022-12-16T14:10:44.338Z,-0.30
2022-12-16T14:13:33.463Z,-0.40
2022-12-16T14:16:20.837Z,-0.40
2022-12-16T14:19:15.088Z,-0.30
2022-12-16T14:22:03.555Z,-0.10
2022-12-16T14:24:49.109Z,-0.20
2022-12-16T14:27:35.772Z,-0.20
2022-12-16T14:30:23.571Z,-0.20
2022-12-16T14:33:09.221Z,-0.20
2022-12-16T14:35:54.553Z,-0.20
2022-12-16T14:38:43.082Z,-0.20
2022-12-16T14:41:32.146Z,-0.10
2022-12-16T14:44:17.661Z,-0.10
2022-12-16T14:47:08.816Z,-0.10
2022-12-16T14:49:56.706Z,-0.20
2022-12-16T14:52:42.793Z,-0.30
2022-12-16T14:55:33.442Z,-0.20
2022-12-16T14:58:23.551Z,-0.40
2022-12-16T15:01:13.967Z,-0.40
2022-12-16T15:04:03.632Z,-0.50
2022-12-16T15:06:50.642Z,-0.40
2022-12-16T15:09:40.077Z,-0.40
2022-12-16T15:12:26.105Z,-0.40
2022-12-16T15:15:12.039Z,-0.40
2022-12-16T15:18:02.911Z,-0.30
2022-12-16T15:20:50.027Z,-0.20
2022-12-16T15:23:38.141Z,-0.20
2022-12-16T15:26:23.605Z,-0.30
2022-12-16T15:29:09.167Z,-0.40
2022-12-16T15:32:01.357Z,-0.40
2022-12-16T15:34:50.071Z,-0.40
2022-12-16T15:37:41.421Z,-0.40
2022-12-16T15:40:41.755Z,-0.40
2022-12-16T15:43:39.838Z,-0.30
2022-12-16T15:46:25.524Z,-0.50
2022-12-16T15:49:10.886Z,-0.50
2022-12-16T15:52:02.034Z,-0.60
2022-12-16T15:54:48.569Z,-0.60
2022-12-16T15:57:47.103Z,-0.50
2022-12-16T16:00:38.941Z,-0.40
2022-12-16T16:03:24.586Z,-0.40
2022-12-16T16:06:10.005Z,-0.30
2022-12-16T16:08:55.533Z,-0.40
2022-12-16T16:11:42.058Z,-0.70
2022-12-16T16:14:27.701Z,-0.70
2022-12-16T16:17:13.278Z,-0.70
2022-12-16T16:20:03.151Z,-0.50
2022-12-16T16:23:00.720Z,-0.50
2022-12-16T16:25:46.049Z,-0.70
2022-12-16T16:28:32.868Z,-0.60
2022-12-16T16:31:18.363Z,-0.20
2022-12-16T16:34:03.888Z,-0.40
2022-12-16T16:36:49.372Z,-0.50
2022-12-16T16:39:34.776Z,-0.60
2022-12-16T16:42:20.341Z,-0.60
2022-12-16T16:45:07.217Z,-0.60
2022-12-16T16:47:52.690Z,-0.20
2022-12-16T16:50:38.227Z,0.30
2022-12-16T16:53:23.625Z,0.00
2022-12-16T16:56:12.686Z,-0.30
2022-12-16T16:59:01.859Z,-0.40
2022-12-16T17:01:51.190Z,-0.50
2022-12-16T17:04:48.235Z,-0.60
2022-12-16T17:07:33.550Z,-0.70
2022-12-16T17:10:18.956Z,-0.70
2022-12-16T17:13:05.003Z,-0.60
2022-12-16T17:15:51.571Z,-0.80
2022-12-16T17:18:44.604Z,-0.80
2022-12-16T17:21:32.123Z,-0.70
2022-12-16T17:24:17.519Z,-0.70
2022-12-16T17:27:03.050Z,-0.80
2022-12-16T17:29:48.583Z,-0.80
2022-12-16T17:32:34.162Z,-0.80
2022-12-16T17:35:21.022Z,-0.80
2022-12-16T17:38:06.529Z,-0.70
2022-12-16T17:40:51.909Z,-0.80
2022-12-16T17:43:37.551Z,-0.60
2022-12-16T17:46:24.067Z,-0.80
2022-12-16T17:49:09.737Z,-0.70
2022-12-16T17:51:56.560Z,-0.80
2022-12-16T17:54:42.066Z,-0.80
2022-12-16T17:57:27.483Z,-0.70
2022-12-16T18:00:13.076Z,-0.70
2022-12-16T18:02:58.663Z,-0.70
2022-12-16T18:05:44.934Z,-0.70
2022-12-16T18:08:31.718Z,-0.90
2022-12-16T18:11:17.209Z,-0.40
2022-12-16T18:14:02.774Z,-0.90
2022-12-16T18:16:48.384Z,-0.80
2022-12-16T18:19:34.167Z,-1.00
2022-12-16T18:22:19.903Z,-1.00
2022-12-16T18:25:06.728Z,-1.00
2022-12-16T18:27:52.379Z,-0.90
2022-12-16T18:30:37.840Z,-1.10
2022-12-16T18:33:23.360Z,-1.30
2022-12-16T18:36:09.005Z,-1.30
2022-12-16T18:38:54.398Z,-1.40
2022-12-16T18:41:41.097Z,-1.40
2022-12-16T18:44:28.158Z,-1.30
2022-12-16T18:47:13.700Z,-1.50
2022-12-16T18:49:59.110Z,-1.50
2022-12-16T18:52:44.490Z,-1.50
2022-12-16T18:55:30.175Z,-1.50
2022-12-16T18:58:42.731Z,-1.50
2022-12-16T19:01:23.431Z,-1.60
2022-12-16T19:04:09.211Z,-1.60
2022-12-16T19:06:54.749Z,-1.50
2022-12-16T19:09:40.224Z,-1.40
2022-12-16T19:12:25.802Z,-1.40
2022-12-16T19:15:12.678Z,-1.40
2022-12-16T19:17:58.057Z,-1.30
2022-12-16T19:20:43.634Z,-1.30
2022-12-16T19:23:31.923Z,-1.30
2022-12-16T19:26:32.089Z,-1.30
2022-12-16T19:29:17.634Z,-1.40
2022-12-16T19:32:04.381Z,-1.20
2022-12-16T19:34:50.041Z,-1.30
2022-12-16T19:37:35.579Z,-1.30
2022-12-16T19:40:21.040Z,-1.20
2022-12-16T19:43:06.506Z,-1.20
2022-12-16T19:45:51.959Z,-1.40
2022-12-16T19:48:38.809Z,-1.20
2022-12-16T19:51:24.685Z,-1.40
2022-12-16T19:54:10.185Z,-1.20
2022-12-16T19:56:55.685Z,-1.20
2022-12-16T19:59:41.347Z,-1.30
2022-12-16T20:02:29.021Z,-1.40
2022-12-16T20:05:16.161Z,-1.40
2022-12-16T20:08:01.801Z,-1.30
2022-12-16T20:10:47.216Z,-1.40
2022-12-16T20:13:32.698Z,-1.20
2022-12-16T20:16:21.134Z,-1.20
2022-12-16T20:19:06.638Z,-1.40
2022-12-16T20:21:56.317Z,-1.50
2022-12-16T20:24:42.066Z,-1.40
2022-12-16T20:27:29.211Z,-1.40
2022-12-16T20:30:14.684Z,-1.30
2022-12-16T20:33:00.234Z,-1.50
2022-12-16T20:35:45.729Z,-1.60
2022-12-16T20:38:32.623Z,-1.60
2022-12-16T20:41:20.160Z,-1.50
2022-12-16T20:44:05.638Z,-1.50
2022-12-16T20:46:51.806Z,-1.40
2022-12-16T20:49:33.636Z,-1.30
2022-12-16T20:52:19.376Z,-1.50
2022-12-16T20:55:06.212Z,-1.40
2022-12-16T20:57:51.812Z,-1.50
2022-12-16T21:00:37.303Z,-1.50
2022-12-16T21:03:25.427Z,-1.50
2022-12-16T21:06:10.937Z,-1.40
2022-12-16T21:08:56.436Z,-1.30
2022-12-16T21:11:43.264Z,-1.40
2022-12-16T21:14:28.836Z,-1.40
2022-12-16T21:17:14.240Z,-1.50
2022-12-16T21:19:59.719Z,-1.40
2022-12-16T21:22:45.251Z,-1.40
2022-12-16T21:25:30.775Z,-1.30
2022-12-16T21:28:17.860Z,-1.40
2022-12-16T21:31:03.320Z,-1.40
2022-12-16T21:33:49.243Z,-1.30
2022-12-16T21:36:34.725Z,-1.60
2022-12-16T21:39:31.616Z,-1.40
2022-12-16T21:42:16.990Z,-1.50
2022-12-16T21:45:03.790Z,-1.60
2022-12-16T21:47:49.201Z,-1.60
2022-12-16T21:50:34.742Z,-1.60
2022-12-16T21:53:20.484Z,-1.60
2022-12-16T21:56:10.373Z,-1.50
2022-12-16T21:58:58.190Z,-1.50
2022-12-16T22:01:45.065Z,-1.30
2022-12-16T22:04:30.449Z,-1.50
2022-12-16T22:07:15.901Z,-1.60
2022-12-16T22:10:01.276Z,-1.40
2022-12-16T22:12:46.830Z,-1.30
2022-12-16T22:15:28.690Z,-1.30
2022-12-16T22:18:16.072Z,-1.30
2022-12-16T22:21:01.572Z,-1.50
2022-12-16T22:23:47.650Z,-1.50
2022-12-16T22:26:33.196Z,-1.40
2022-12-16T22:29:18.664Z,-1.40
2022-12-16T22:32:04.295Z,-1.50
2022-12-16T22:34:51.098Z,-1.40
2022-12-16T22:37:37.596Z,-1.50
2022-12-16T22:40:24.034Z,-1.60
2022-12-16T22:43:09.476Z,-1.60
2022-12-16T22:45:54.868Z,-1.50
2022-12-16T22:48:41.769Z,-1.50
2022-12-16T22:51:30.350Z,-1.40
2022-12-16T22:54:15.824Z,-1.40
2022-12-16T22:57:01.401Z,-1.30
2022-12-16T22:59:46.865Z,-1.30
2022-12-16T23:02:32.395Z,-1.30
2022-12-16T23:05:21.088Z,-1.30
2022-12-16T23:08:10.332Z,-1.60
2022-12-16T23:10:56.436Z,-1.50
2022-12-16T23:13:50.735Z,-1.40
2022-12-16T23:16:36.423Z,-1.50
2022-12-16T23:19:21.751Z,-1.40
2022-12-16T23:22:07.047Z,-1.50
2022-12-16T23:24:53.922Z,-1.60
2022-12-16T23:27:39.280Z,-1.50
2022-12-16T23:30:25.600Z,-1.70
2022-12-16T23:33:26.899Z,-1.60
2022-12-16T23:36:12.463Z,-1.50
2022-12-16T23:38:57.921Z,-1.50
2022-12-16T23:41:44.657Z,-1.30
2022-12-16T23:44:30.199Z,-1.40
2022-12-16T23:47:15.581Z,-1.40
2022-12-16T23:50:00.957Z,-1.40
2022-12-16T23:52:46.387Z,-1.30
2022-12-16T23:55:28.156Z,-1.40
2022-12-16T23:58:18.627Z,-1.40
